sensor_id;sensor_type;location;lat;lon;timestamp;P1;durP1;ratioP1;P2;durP2;ratioP2
82526;SDS011;72188;41.974;21.456;2023-10-13T00:00:21;26.70;;;16.27;;
82526;SDS011;72188;41.974;21.456;2023-10-13T00:02:51;25.70;;;15.80;;
82526;SDS011;72188;41.974;21.456;2023-10-13T00:05:18;29.48;;;17.95;;
82526;SDS011;72188;41.974;21.456;2023-10-13T00:07:44;29.60;;;17.35;;
82526;SDS011;72188;41.974;21.456;2023-10-13T00:10:12;29.77;;;16.70;;
82526;SDS011;72188;41.974;21.456;2023-10-13T00:12:38;31.83;;;16.02;;
82526;SDS011;72188;41.974;21.456;2023-10-13T00:15:04;28.48;;;16.67;;
82526;SDS011;72188;41.974;21.456;2023-10-13T00:17:38;25.48;;;15.20;;
82526;SDS011;72188;41.974;21.456;2023-10-13T00:20:04;27.48;;;16.15;;
82526;SDS011;72188;41.974;21.456;2023-10-13T00:22:37;24.23;;;15.10;;
82526;SDS011;72188;41.974;21.456;2023-10-13T00:25:05;25.20;;;15.90;;
82526;SDS011;72188;41.974;21.456;2023-10-13T00:27:37;25.65;;;16.58;;
82526;SDS011;72188;41.974;21.456;2023-10-13T00:30:06;28.35;;;15.07;;
82526;SDS011;72188;41.974;21.456;2023-10-13T00:32:43;26.83;;;15.25;;
82526;SDS011;72188;41.974;21.456;2023-10-13T00:35:11;29.60;;;16.63;;
82526;SDS011;72188;41.974;21.456;2023-10-13T00:40:43;28.20;;;15.43;;
82526;SDS011;72188;41.974;21.456;2023-10-13T00:43:16;29.23;;;16.33;;
82526;SDS011;72188;41.974;21.456;2023-10-13T00:45:46;28.27;;;16.48;;
82526;SDS011;72188;41.974;21.456;2023-10-13T00:48:28;28.67;;;16.38;;
82526;SDS011;72188;41.974;21.456;2023-10-13T00:51:02;25.48;;;15.65;;
82526;SDS011;72188;41.974;21.456;2023-10-13T00:53:31;23.90;;;15.98;;
82526;SDS011;72188;41.974;21.456;2023-10-13T00:56:09;27.05;;;15.18;;
82526;SDS011;72188;41.974;21.456;2023-10-13T00:58:47;24.33;;;16.27;;
82526;SDS011;72188;41.974;21.456;2023-10-13T01:01:17;26.17;;;15.52;;
82526;SDS011;72188;41.974;21.456;2023-10-13T01:03:44;30.35;;;16.30;;
82526;SDS011;72188;41.974;21.456;2023-10-13T01:06:13;29.30;;;16.52;;
82526;SDS011;72188;41.974;21.456;2023-10-13T01:08:41;25.83;;;15.90;;
82526;SDS011;72188;41.974;21.456;2023-10-13T01:11:09;27.75;;;16.02;;
82526;SDS011;72188;41.974;21.456;2023-10-13T01:13:35;24.90;;;15.63;;
82526;SDS011;72188;41.974;21.456;2023-10-13T01:16:02;26.58;;;15.13;;
82526;SDS011;72188;41.974;21.456;2023-10-13T01:20:55;30.20;;;15.82;;
82526;SDS011;72188;41.974;21.456;2023-10-13T01:23:27;30.13;;;15.95;;
82526;SDS011;72188;41.974;21.456;2023-10-13T01:25:54;30.95;;;17.05;;
82526;SDS011;72188;41.974;21.456;2023-10-13T01:28:23;33.08;;;17.85;;
82526;SDS011;72188;41.974;21.456;2023-10-13T01:30:49;31.13;;;16.83;;
82526;SDS011;72188;41.974;21.456;2023-10-13T01:33:16;30.48;;;16.02;;
82526;SDS011;72188;41.974;21.456;2023-10-13T01:35:42;25.80;;;15.45;;
82526;SDS011;72188;41.974;21.456;2023-10-13T01:38:13;28.90;;;16.73;;
82526;SDS011;72188;41.974;21.456;2023-10-13T01:40:39;26.42;;;15.38;;
82526;SDS011;72188;41.974;21.456;2023-10-13T01:43:08;26.17;;;16.17;;
82526;SDS011;72188;41.974;21.456;2023-10-13T01:45:36;29.95;;;16.77;;
82526;SDS011;72188;41.974;21.456;2023-10-13T01:48:11;27.70;;;17.25;;
82526;SDS011;72188;41.974;21.456;2023-10-13T01:50:40;31.05;;;17.13;;
82526;SDS011;72188;41.974;21.456;2023-10-13T01:53:07;30.67;;;17.85;;
82526;SDS011;72188;41.974;21.456;2023-10-13T01:55:42;30.20;;;16.80;;
82526;SDS011;72188;41.974;21.456;2023-10-13T01:58:12;24.88;;;16.40;;
82526;SDS011;72188;41.974;21.456;2023-10-13T02:00:41;25.90;;;16.05;;
82526;SDS011;72188;41.974;21.456;2023-10-13T02:03:09;28.27;;;16.70;;
82526;SDS011;72188;41.974;21.456;2023-10-13T02:05:45;28.02;;;15.73;;
82526;SDS011;72188;41.974;21.456;2023-10-13T02:08:18;27.70;;;16.90;;
82526;SDS011;72188;41.974;21.456;2023-10-13T02:10:51;25.98;;;16.73;;
82526;SDS011;72188;41.974;21.456;2023-10-13T02:13:18;30.10;;;19.08;;
82526;SDS011;72188;41.974;21.456;2023-10-13T02:15:48;28.60;;;18.17;;
82526;SDS011;72188;41.974;21.456;2023-10-13T02:18:16;31.63;;;18.83;;
82526;SDS011;72188;41.974;21.456;2023-10-13T02:20:49;33.05;;;18.98;;
82526;SDS011;72188;41.974;21.456;2023-10-13T02:23:20;33.50;;;20.08;;
82526;SDS011;72188;41.974;21.456;2023-10-13T02:25:46;29.65;;;17.67;;
82526;SDS011;72188;41.974;21.456;2023-10-13T02:28:12;29.23;;;18.17;;
82526;SDS011;72188;41.974;21.456;2023-10-13T02:30:42;31.17;;;19.10;;
82526;SDS011;72188;41.974;21.456;2023-10-13T02:33:14;28.65;;;17.25;;
82526;SDS011;72188;41.974;21.456;2023-10-13T02:35:46;30.35;;;16.52;;
82526;SDS011;72188;41.974;21.456;2023-10-13T02:38:21;29.50;;;17.58;;
82526;SDS011;72188;41.974;21.456;2023-10-13T02:41:15;28.10;;;17.63;;
82526;SDS011;72188;41.974;21.456;2023-10-13T02:43:50;30.85;;;17.50;;
82526;SDS011;72188;41.974;21.456;2023-10-13T02:46:17;27.42;;;16.63;;
82526;SDS011;72188;41.974;21.456;2023-10-13T02:48:43;32.20;;;18.63;;
82526;SDS011;72188;41.974;21.456;2023-10-13T02:51:11;27.15;;;16.58;;
82526;SDS011;72188;41.974;21.456;2023-10-13T02:53:41;30.48;;;18.17;;
82526;SDS011;72188;41.974;21.456;2023-10-13T02:56:07;31.75;;;17.20;;
82526;SDS011;72188;41.974;21.456;2023-10-13T02:58:33;34.95;;;18.13;;
82526;SDS011;72188;41.974;21.456;2023-10-13T03:01:10;29.10;;;17.70;;
82526;SDS011;72188;41.974;21.456;2023-10-13T03:03:43;31.80;;;18.02;;
82526;SDS011;72188;41.974;21.456;2023-10-13T03:06:12;34.90;;;17.92;;
82526;SDS011;72188;41.974;21.456;2023-10-13T03:08:38;30.98;;;17.95;;
82526;SDS011;72188;41.974;21.456;2023-10-13T03:11:05;34.80;;;18.98;;
82526;SDS011;72188;41.974;21.456;2023-10-13T03:13:31;33.70;;;18.13;;
82526;SDS011;72188;41.974;21.456;2023-10-13T03:16:00;32.10;;;18.88;;
82526;SDS011;72188;41.974;21.456;2023-10-13T03:18:29;28.85;;;16.83;;
82526;SDS011;72188;41.974;21.456;2023-10-13T03:20:59;32.53;;;18.02;;
82526;SDS011;72188;41.974;21.456;2023-10-13T03:23:27;31.45;;;19.27;;
82526;SDS011;72188;41.974;21.456;2023-10-13T03:25:53;38.03;;;18.55;;
82526;SDS011;72188;41.974;21.456;2023-10-13T03:28:20;32.50;;;17.85;;
82526;SDS011;72188;41.974;21.456;2023-10-13T03:30:51;36.83;;;19.77;;
82526;SDS011;72188;41.974;21.456;2023-10-13T03:33:20;31.45;;;19.98;;
82526;SDS011;72188;41.974;21.456;2023-10-13T03:35:52;31.08;;;18.33;;
82526;SDS011;72188;41.974;21.456;2023-10-13T03:38:19;35.50;;;19.55;;
82526;SDS011;72188;41.974;21.456;2023-10-13T03:40:50;37.45;;;20.95;;
82526;SDS011;72188;41.974;21.456;2023-10-13T03:43:33;33.30;;;19.17;;
82526;SDS011;72188;41.974;21.456;2023-10-13T03:46:10;32.42;;;18.27;;
82526;SDS011;72188;41.974;21.456;2023-10-13T03:48:36;28.13;;;17.85;;
82526;SDS011;72188;41.974;21.456;2023-10-13T03:51:17;33.03;;;18.75;;
82526;SDS011;72188;41.974;21.456;2023-10-13T03:53:44;31.40;;;20.48;;
82526;SDS011;72188;41.974;21.456;2023-10-13T03:56:23;34.53;;;19.00;;
82526;SDS011;72188;41.974;21.456;2023-10-13T03:58:53;33.17;;;20.00;;
82526;SDS011;72188;41.974;21.456;2023-10-13T04:01:23;36.03;;;19.63;;
82526;SDS011;72188;41.974;21.456;2023-10-13T04:04:08;30.08;;;18.85;;
82526;SDS011;72188;41.974;21.456;2023-10-13T04:06:43;35.30;;;21.30;;
82526;SDS011;72188;41.974;21.456;2023-10-13T04:09:18;36.17;;;20.33;;
82526;SDS011;72188;41.974;21.456;2023-10-13T04:11:57;36.45;;;17.98;;
82526;SDS011;72188;41.974;21.456;2023-10-13T04:14:27;39.72;;;19.20;;
82526;SDS011;72188;41.974;21.456;2023-10-13T04:17:11;36.50;;;19.13;;
82526;SDS011;72188;41.974;21.456;2023-10-13T04:19:40;36.38;;;19.08;;
82526;SDS011;72188;41.974;21.456;2023-10-13T04:22:25;35.30;;;17.60;;
82526;SDS011;72188;41.974;21.456;2023-10-13T04:25:32;31.02;;;18.27;;
82526;SDS011;72188;41.974;21.456;2023-10-13T04:28:24;32.67;;;18.30;;
82526;SDS011;72188;41.974;21.456;2023-10-13T04:30:53;30.35;;;17.95;;
82526;SDS011;72188;41.974;21.456;2023-10-13T04:38:37;29.45;;;19.60;;
82526;SDS011;72188;41.974;21.456;2023-10-13T04:41:20;34.72;;;19.30;;
82526;SDS011;72188;41.974;21.456;2023-10-13T04:43:49;31.73;;;18.83;;
82526;SDS011;72188;41.974;21.456;2023-10-13T04:46:22;34.58;;;19.05;;
82526;SDS011;72188;41.974;21.456;2023-10-13T04:49:19;30.40;;;18.27;;
82526;SDS011;72188;41.974;21.456;2023-10-13T04:52:04;41.47;;;19.40;;
82526;SDS011;72188;41.974;21.456;2023-10-13T04:54:34;39.20;;;20.35;;
82526;SDS011;72188;41.974;21.456;2023-10-13T04:57:21;46.42;;;22.27;;
82526;SDS011;72188;41.974;21.456;2023-10-13T05:00:00;43.03;;;20.80;;
82526;SDS011;72188;41.974;21.456;2023-10-13T05:02:29;39.03;;;19.98;;
82526;SDS011;72188;41.974;21.456;2023-10-13T05:05:02;45.13;;;20.30;;
82526;SDS011;72188;41.974;21.456;2023-10-13T05:07:31;35.17;;;19.20;;
82526;SDS011;72188;41.974;21.456;2023-10-13T05:10:16;36.28;;;21.77;;
82526;SDS011;72188;41.974;21.456;2023-10-13T05:13:01;42.42;;;22.77;;
82526;SDS011;72188;41.974;21.456;2023-10-13T05:15:47;35.38;;;20.73;;
82526;SDS011;72188;41.974;21.456;2023-10-13T05:18:32;34.70;;;20.13;;
82526;SDS011;72188;41.974;21.456;2023-10-13T05:21:17;38.83;;;20.83;;
82526;SDS011;72188;41.974;21.456;2023-10-13T05:24:02;38.00;;;20.27;;
82526;SDS011;72188;41.974;21.456;2023-10-13T05:26:47;35.78;;;20.83;;
82526;SDS011;72188;41.974;21.456;2023-10-13T05:29:31;28.38;;;18.80;;
82526;SDS011;72188;41.974;21.456;2023-10-13T05:32:16;28.75;;;19.83;;
82526;SDS011;72188;41.974;21.456;2023-10-13T05:35:00;41.95;;;20.77;;
82526;SDS011;72188;41.974;21.456;2023-10-13T05:37:49;32.42;;;18.48;;
82526;SDS011;72188;41.974;21.456;2023-10-13T05:40:34;38.50;;;19.00;;
82526;SDS011;72188;41.974;21.456;2023-10-13T05:43:19;34.58;;;21.08;;
82526;SDS011;72188;41.974;21.456;2023-10-13T05:46:04;31.17;;;20.42;;
82526;SDS011;72188;41.974;21.456;2023-10-13T05:48:49;28.83;;;18.02;;
82526;SDS011;72188;41.974;21.456;2023-10-13T05:51:28;28.33;;;18.00;;
82526;SDS011;72188;41.974;21.456;2023-10-13T05:54:00;29.15;;;19.35;;
82526;SDS011;72188;41.974;21.456;2023-10-13T05:56:42;31.35;;;18.13;;
82526;SDS011;72188;41.974;21.456;2023-10-13T05:59:27;32.67;;;18.98;;
82526;SDS011;72188;41.974;21.456;2023-10-13T06:02:14;29.73;;;18.13;;
82526;SDS011;72188;41.974;21.456;2023-10-13T06:05:02;30.00;;;19.58;;
82526;SDS011;72188;41.974;21.456;2023-10-13T06:07:47;32.35;;;18.05;;
82526;SDS011;72188;41.974;21.456;2023-10-13T06:10:32;31.20;;;18.95;;
82526;SDS011;72188;41.974;21.456;2023-10-13T06:13:16;34.83;;;18.10;;
82526;SDS011;72188;41.974;21.456;2023-10-13T06:16:08;25.73;;;17.80;;
82526;SDS011;72188;41.974;21.456;2023-10-13T06:18:53;26.30;;;18.33;;
82526;SDS011;72188;41.974;21.456;2023-10-13T06:21:37;30.75;;;19.25;;
82526;SDS011;72188;41.974;21.456;2023-10-13T06:24:22;30.63;;;18.90;;
82526;SDS011;72188;41.974;21.456;2023-10-13T06:27:07;26.45;;;18.75;;
82526;SDS011;72188;41.974;21.456;2023-10-13T06:29:52;35.05;;;19.00;;
82526;SDS011;72188;41.974;21.456;2023-10-13T06:32:21;27.20;;;19.25;;
82526;SDS011;72188;41.974;21.456;2023-10-13T06:34:57;30.35;;;19.42;;
82526;SDS011;72188;41.974;21.456;2023-10-13T06:37:26;28.42;;;18.52;;
82526;SDS011;72188;41.974;21.456;2023-10-13T06:39:58;31.75;;;19.30;;
82526;SDS011;72188;41.974;21.456;2023-10-13T06:42:28;32.00;;;19.00;;
82526;SDS011;72188;41.974;21.456;2023-10-13T06:44:54;31.38;;;19.52;;
82526;SDS011;72188;41.974;21.456;2023-10-13T06:47:21;31.92;;;20.23;;
82526;SDS011;72188;41.974;21.456;2023-10-13T06:49:47;32.70;;;19.88;;
82526;SDS011;72188;41.974;21.456;2023-10-13T06:52:16;30.02;;;20.40;;
82526;SDS011;72188;41.974;21.456;2023-10-13T06:54:42;36.28;;;20.75;;
82526;SDS011;72188;41.974;21.456;2023-10-13T06:57:09;27.05;;;20.08;;
82526;SDS011;72188;41.974;21.456;2023-10-13T06:59:48;31.40;;;19.42;;
82526;SDS011;72188;41.974;21.456;2023-10-13T07:02:16;32.92;;;20.80;;
82526;SDS011;72188;41.974;21.456;2023-10-13T07:04:55;35.17;;;20.23;;
82526;SDS011;72188;41.974;21.456;2023-10-13T07:07:32;32.30;;;20.45;;
82526;SDS011;72188;41.974;21.456;2023-10-13T07:09:58;29.60;;;19.60;;
82526;SDS011;72188;41.974;21.456;2023-10-13T07:12:24;38.60;;;21.13;;
82526;SDS011;72188;41.974;21.456;2023-10-13T07:14:58;27.10;;;19.95;;
82526;SDS011;72188;41.974;21.456;2023-10-13T07:20:10;30.98;;;21.08;;
82526;SDS011;72188;41.974;21.456;2023-10-13T07:22:43;35.85;;;21.90;;
82526;SDS011;72188;41.974;21.456;2023-10-13T07:25:28;30.45;;;21.08;;
82526;SDS011;72188;41.974;21.456;2023-10-13T07:27:58;31.23;;;21.13;;
82526;SDS011;72188;41.974;21.456;2023-10-13T07:32:55;26.55;;;18.23;;
82526;SDS011;72188;41.974;21.456;2023-10-13T07:35:24;29.70;;;19.27;;
82526;SDS011;72188;41.974;21.456;2023-10-13T07:37:55;21.60;;;16.38;;
82526;SDS011;72188;41.974;21.456;2023-10-13T07:40:25;28.30;;;17.30;;
82526;SDS011;72188;41.974;21.456;2023-10-13T07:42:51;29.73;;;19.42;;
82526;SDS011;72188;41.974;21.456;2023-10-13T07:45:17;28.23;;;18.63;;
82526;SDS011;72188;41.974;21.456;2023-10-13T07:48:01;29.83;;;18.45;;
82526;SDS011;72188;41.974;21.456;2023-10-13T07:50:33;22.15;;;17.02;;
82526;SDS011;72188;41.974;21.456;2023-10-13T07:52:59;30.27;;;18.65;;
82526;SDS011;72188;41.974;21.456;2023-10-13T07:55:44;28.90;;;18.50;;
82526;SDS011;72188;41.974;21.456;2023-10-13T07:58:12;28.98;;;19.48;;
82526;SDS011;72188;41.974;21.456;2023-10-13T08:00:38;28.17;;;19.60;;
82526;SDS011;72188;41.974;21.456;2023-10-13T08:03:11;27.45;;;19.70;;
82526;SDS011;72188;41.974;21.456;2023-10-13T08:05:43;24.95;;;19.88;;
82526;SDS011;72188;41.974;21.456;2023-10-13T08:08:28;31.42;;;21.70;;
82526;SDS011;72188;41.974;21.456;2023-10-13T08:11:03;27.33;;;18.70;;
82526;SDS011;72188;41.974;21.456;2023-10-13T08:13:36;31.63;;;19.65;;
82526;SDS011;72188;41.974;21.456;2023-10-13T08:16:03;28.95;;;19.98;;
82526;SDS011;72188;41.974;21.456;2023-10-13T08:18:37;25.40;;;20.20;;
82526;SDS011;72188;41.974;21.456;2023-10-13T08:21:06;26.98;;;19.70;;
82526;SDS011;72188;41.974;21.456;2023-10-13T08:23:40;27.13;;;18.83;;
82526;SDS011;72188;41.974;21.456;2023-10-13T08:26:19;28.42;;;20.10;;
82526;SDS011;72188;41.974;21.456;2023-10-13T08:29:01;26.85;;;18.88;;
82526;SDS011;72188;41.974;21.456;2023-10-13T08:31:56;30.90;;;19.00;;
82526;SDS011;72188;41.974;21.456;2023-10-13T08:34:48;26.60;;;18.75;;
82526;SDS011;72188;41.974;21.456;2023-10-13T08:37:17;29.73;;;19.13;;
82526;SDS011;72188;41.974;21.456;2023-10-13T08:39:47;24.20;;;17.90;;
82526;SDS011;72188;41.974;21.456;2023-10-13T08:42:26;31.85;;;18.42;;
82526;SDS011;72188;41.974;21.456;2023-10-13T08:45:13;25.00;;;17.65;;
82526;SDS011;72188;41.974;21.456;2023-10-13T08:47:48;21.75;;;17.27;;
82526;SDS011;72188;41.974;21.456;2023-10-13T08:50:36;22.02;;;16.05;;
82526;SDS011;72188;41.974;21.456;2023-10-13T08:56:08;25.73;;;17.63;;
82526;SDS011;72188;41.974;21.456;2023-10-13T08:58:46;24.52;;;16.98;;
82526;SDS011;72188;41.974;21.456;2023-10-13T09:01:22;27.77;;;19.42;;
82526;SDS011;72188;41.974;21.456;2023-10-13T09:04:07;27.60;;;20.48;;
82526;SDS011;72188;41.974;21.456;2023-10-13T09:06:43;28.15;;;19.67;;
82526;SDS011;72188;41.974;21.456;2023-10-13T09:09:13;27.27;;;19.15;;
82526;SDS011;72188;41.974;21.456;2023-10-13T09:11:58;31.55;;;18.27;;
82526;SDS011;72188;41.974;21.456;2023-10-13T09:14:34;30.33;;;19.08;;
82526;SDS011;72188;41.974;21.456;2023-10-13T09:17:04;29.70;;;18.83;;
82526;SDS011;72188;41.974;21.456;2023-10-13T09:19:46;26.50;;;18.23;;
82526;SDS011;72188;41.974;21.456;2023-10-13T09:22:46;29.30;;;19.40;;
82526;SDS011;72188;41.974;21.456;2023-10-13T09:25:07;26.77;;;18.13;;
82526;SDS011;72188;41.974;21.456;2023-10-13T09:27:38;28.10;;;18.55;;
82526;SDS011;72188;41.974;21.456;2023-10-13T09:30:05;25.38;;;19.38;;
82526;SDS011;72188;41.974;21.456;2023-10-13T09:32:35;28.67;;;18.42;;
82526;SDS011;72188;41.974;21.456;2023-10-13T09:35:19;24.63;;;17.85;;
82526;SDS011;72188;41.974;21.456;2023-10-13T09:37:48;24.55;;;18.75;;
82526;SDS011;72188;41.974;21.456;2023-10-13T09:40:15;26.20;;;18.27;;
82526;SDS011;72188;41.974;21.456;2023-10-13T09:43:03;24.23;;;17.30;;
82526;SDS011;72188;41.974;21.456;2023-10-13T09:45:34;23.92;;;16.98;;
82526;SDS011;72188;41.974;21.456;2023-10-13T09:48:11;25.77;;;18.02;;
82526;SDS011;72188;41.974;21.456;2023-10-13T09:50:47;24.45;;;17.25;;
82526;SDS011;72188;41.974;21.456;2023-10-13T09:53:13;26.15;;;17.30;;
82526;SDS011;72188;41.974;21.456;2023-10-13T09:55:46;26.45;;;17.77;;
82526;SDS011;72188;41.974;21.456;2023-10-13T09:58:13;28.42;;;18.27;;
82526;SDS011;72188;41.974;21.456;2023-10-13T10:00:47;30.98;;;18.63;;
82526;SDS011;72188;41.974;21.456;2023-10-13T10:03:31;23.05;;;18.00;;
82526;SDS011;72188;41.974;21.456;2023-10-13T10:06:01;22.88;;;16.63;;
82526;SDS011;72188;41.974;21.456;2023-10-13T10:08:50;23.17;;;16.00;;
82526;SDS011;72188;41.974;21.456;2023-10-13T10:17:09;27.90;;;15.75;;
82526;SDS011;72188;41.974;21.456;2023-10-13T10:22:24;18.65;;;13.25;;
82526;SDS011;72188;41.974;21.456;2023-10-13T10:25:03;15.88;;;12.43;;
82526;SDS011;72188;41.974;21.456;2023-10-13T10:27:54;18.70;;;12.82;;
82526;SDS011;72188;41.974;21.456;2023-10-13T10:30:26;21.48;;;14.10;;
82526;SDS011;72188;41.974;21.456;2023-10-13T10:32:56;17.85;;;12.98;;
82526;SDS011;72188;41.974;21.456;2023-10-13T10:35:25;17.38;;;12.80;;
82526;SDS011;72188;41.974;21.456;2023-10-13T10:37:56;21.50;;;12.32;;
82526;SDS011;72188;41.974;21.456;2023-10-13T10:40:36;18.83;;;12.10;;
82526;SDS011;72188;41.974;21.456;2023-10-13T10:43:13;20.40;;;13.05;;
82526;SDS011;72188;41.974;21.456;2023-10-13T10:45:47;18.88;;;12.65;;
82526;SDS011;72188;41.974;21.456;2023-10-13T10:48:16;23.13;;;13.77;;
82526;SDS011;72188;41.974;21.456;2023-10-13T10:50:53;26.25;;;13.45;;
82526;SDS011;72188;41.974;21.456;2023-10-13T10:53:22;17.38;;;11.80;;
82526;SDS011;72188;41.974;21.456;2023-10-13T10:56:08;20.80;;;12.43;;
82526;SDS011;72188;41.974;21.456;2023-10-13T10:58:48;18.33;;;12.82;;
82526;SDS011;72188;41.974;21.456;2023-10-13T11:01:20;19.45;;;12.57;;
82526;SDS011;72188;41.974;21.456;2023-10-13T11:06:12;20.02;;;13.10;;
82526;SDS011;72188;41.974;21.456;2023-10-13T11:11:16;20.88;;;12.35;;
82526;SDS011;72188;41.974;21.456;2023-10-13T11:13:45;19.17;;;10.60;;
82526;SDS011;72188;41.974;21.456;2023-10-13T11:16:22;19.20;;;10.60;;
82526;SDS011;72188;41.974;21.456;2023-10-13T11:19:10;17.02;;;11.30;;
82526;SDS011;72188;41.974;21.456;2023-10-13T11:21:36;14.77;;;10.25;;
82526;SDS011;72188;41.974;21.456;2023-10-13T11:24:03;19.23;;;11.60;;
82526;SDS011;72188;41.974;21.456;2023-10-13T11:26:36;18.58;;;11.55;;
82526;SDS011;72188;41.974;21.456;2023-10-13T11:29:18;24.60;;;14.90;;
82526;SDS011;72188;41.974;21.456;2023-10-13T11:31:46;15.25;;;11.45;;
82526;SDS011;72188;41.974;21.456;2023-10-13T11:34:12;18.38;;;11.75;;
82526;SDS011;72188;41.974;21.456;2023-10-13T11:36:42;15.85;;;11.45;;
82526;SDS011;72188;41.974;21.456;2023-10-13T11:39:08;17.38;;;9.98;;
82526;SDS011;72188;41.974;21.456;2023-10-13T11:41:42;18.05;;;10.38;;
82526;SDS011;72188;41.974;21.456;2023-10-13T11:44:15;16.17;;;9.88;;
82526;SDS011;72188;41.974;21.456;2023-10-13T11:46:45;15.18;;;10.50;;
82526;SDS011;72188;41.974;21.456;2023-10-13T11:49:34;20.98;;;11.10;;
82526;SDS011;72188;41.974;21.456;2023-10-13T11:52:02;27.60;;;13.63;;
82526;SDS011;72188;41.974;21.456;2023-10-13T11:54:41;17.75;;;10.38;;
82526;SDS011;72188;41.974;21.456;2023-10-13T11:57:07;20.55;;;10.30;;
82526;SDS011;72188;41.974;21.456;2023-10-13T11:59:33;16.13;;;9.98;;
82526;SDS011;72188;41.974;21.456;2023-10-13T12:02:05;16.25;;;9.88;;
82526;SDS011;72188;41.974;21.456;2023-10-13T12:04:50;14.93;;;9.80;;
82526;SDS011;72188;41.974;21.456;2023-10-13T12:07:28;18.45;;;10.48;;
82526;SDS011;72188;41.974;21.456;2023-10-13T12:12:58;17.75;;;9.93;;
82526;SDS011;72188;41.974;21.456;2023-10-13T12:15:35;14.35;;;8.52;;
82526;SDS011;72188;41.974;21.456;2023-10-13T12:18:21;15.43;;;9.75;;
82526;SDS011;72188;41.974;21.456;2023-10-13T12:20:48;15.38;;;9.38;;
82526;SDS011;72188;41.974;21.456;2023-10-13T12:23:14;18.00;;;10.05;;
82526;SDS011;72188;41.974;21.456;2023-10-13T12:25:42;13.68;;;9.20;;
82526;SDS011;72188;41.974;21.456;2023-10-13T12:28:22;14.00;;;8.35;;
82526;SDS011;72188;41.974;21.456;2023-10-13T12:30:50;13.27;;;8.07;;
82526;SDS011;72188;41.974;21.456;2023-10-13T12:33:22;14.65;;;8.60;;
82526;SDS011;72188;41.974;21.456;2023-10-13T12:36:02;16.15;;;9.50;;
82526;SDS011;72188;41.974;21.456;2023-10-13T12:38:34;17.92;;;9.70;;
82526;SDS011;72188;41.974;21.456;2023-10-13T12:41:13;22.65;;;9.45;;
82526;SDS011;72188;41.974;21.456;2023-10-13T12:43:57;18.63;;;10.38;;
82526;SDS011;72188;41.974;21.456;2023-10-13T12:46:42;13.90;;;7.82;;
82526;SDS011;72188;41.974;21.456;2023-10-13T12:49:27;18.42;;;8.32;;
82526;SDS011;72188;41.974;21.456;2023-10-13T12:52:11;11.43;;;7.35;;
82526;SDS011;72188;41.974;21.456;2023-10-13T12:54:57;14.00;;;8.18;;
82526;SDS011;72188;41.974;21.456;2023-10-13T12:57:29;22.95;;;12.85;;
82526;SDS011;72188;41.974;21.456;2023-10-13T12:59:57;14.20;;;8.13;;
82526;SDS011;72188;41.974;21.456;2023-10-13T13:02:23;14.80;;;9.40;;
82526;SDS011;72188;41.974;21.456;2023-10-13T13:04:56;13.18;;;6.95;;
82526;SDS011;72188;41.974;21.456;2023-10-13T13:07:32;13.88;;;8.23;;
82526;SDS011;72188;41.974;21.456;2023-10-13T13:10:08;15.38;;;8.25;;
82526;SDS011;72188;41.974;21.456;2023-10-13T13:12:36;13.82;;;7.97;;
82526;SDS011;72188;41.974;21.456;2023-10-13T13:15:03;14.20;;;7.30;;
82526;SDS011;72188;41.974;21.456;2023-10-13T13:17:33;14.93;;;7.30;;
82526;SDS011;72188;41.974;21.456;2023-10-13T13:19:59;12.65;;;7.25;;
82526;SDS011;72188;41.974;21.456;2023-10-13T13:22:33;12.95;;;7.28;;
82526;SDS011;72188;41.974;21.456;2023-10-13T13:24:59;12.15;;;7.47;;
82526;SDS011;72188;41.974;21.456;2023-10-13T13:29:52;16.05;;;7.57;;
82526;SDS011;72188;41.974;21.456;2023-10-13T13:32:18;9.75;;;6.68;;
82526;SDS011;72188;41.974;21.456;2023-10-13T13:34:49;11.88;;;7.10;;
82526;SDS011;72188;41.974;21.456;2023-10-13T13:37:44;12.52;;;6.78;;
82526;SDS011;72188;41.974;21.456;2023-10-13T13:40:10;10.20;;;5.97;;
82526;SDS011;72188;41.974;21.456;2023-10-13T13:42:43;12.20;;;6.38;;
82526;SDS011;72188;41.974;21.456;2023-10-13T13:45:13;8.80;;;5.32;;
82526;SDS011;72188;41.974;21.456;2023-10-13T13:47:47;9.43;;;5.20;;
82526;SDS011;72188;41.974;21.456;2023-10-13T13:50:18;13.80;;;6.20;;
82526;SDS011;72188;41.974;21.456;2023-10-13T13:52:49;9.98;;;5.10;;
82526;SDS011;72188;41.974;21.456;2023-10-13T13:55:22;8.50;;;4.82;;
82526;SDS011;72188;41.974;21.456;2023-10-13T13:57:48;10.38;;;5.35;;
82526;SDS011;72188;41.974;21.456;2023-10-13T14:00:16;11.38;;;5.35;;
82526;SDS011;72188;41.974;21.456;2023-10-13T14:02:45;11.52;;;5.57;;
82526;SDS011;72188;41.974;21.456;2023-10-13T14:05:13;9.30;;;5.30;;
82526;SDS011;72188;41.974;21.456;2023-10-13T14:07:41;10.30;;;5.28;;
82526;SDS011;72188;41.974;21.456;2023-10-13T14:10:08;9.70;;;4.90;;
82526;SDS011;72188;41.974;21.456;2023-10-13T14:12:41;12.57;;;5.45;;
82526;SDS011;72188;41.974;21.456;2023-10-13T14:15:10;7.63;;;4.70;;
82526;SDS011;72188;41.974;21.456;2023-10-13T14:17:46;8.85;;;5.03;;
82526;SDS011;72188;41.974;21.456;2023-10-13T14:20:14;10.77;;;5.20;;
82526;SDS011;72188;41.974;21.456;2023-10-13T14:22:44;7.22;;;4.85;;
82526;SDS011;72188;41.974;21.456;2023-10-13T14:25:13;7.95;;;4.85;;
82526;SDS011;72188;41.974;21.456;2023-10-13T14:27:42;8.80;;;4.85;;
82526;SDS011;72188;41.974;21.456;2023-10-13T14:30:09;12.63;;;5.30;;
82526;SDS011;72188;41.974;21.456;2023-10-13T14:32:35;10.32;;;5.35;;
82526;SDS011;72188;41.974;21.456;2023-10-13T14:35:05;8.75;;;5.10;;
82526;SDS011;72188;41.974;21.456;2023-10-13T14:37:40;10.38;;;5.43;;
82526;SDS011;72188;41.974;21.456;2023-10-13T14:40:07;11.00;;;5.18;;
82526;SDS011;72188;41.974;21.456;2023-10-13T14:45:12;8.32;;;4.72;;
82526;SDS011;72188;41.974;21.456;2023-10-13T14:47:39;38.90;;;28.42;;
82526;SDS011;72188;41.974;21.456;2023-10-13T14:50:05;9.90;;;5.18;;
82526;SDS011;72188;41.974;21.456;2023-10-13T14:52:32;13.90;;;6.72;;
82526;SDS011;72188;41.974;21.456;2023-10-13T14:54:58;12.43;;;5.60;;
82526;SDS011;72188;41.974;21.456;2023-10-13T14:57:24;15.95;;;8.02;;
82526;SDS011;72188;41.974;21.456;2023-10-13T14:59:54;21.65;;;9.93;;
82526;SDS011;72188;41.974;21.456;2023-10-13T15:02:21;15.73;;;9.23;;
82526;SDS011;72188;41.974;21.456;2023-10-13T15:04:47;17.83;;;8.32;;
82526;SDS011;72188;41.974;21.456;2023-10-13T15:07:14;16.77;;;7.40;;
82526;SDS011;72188;41.974;21.456;2023-10-13T15:09:41;14.38;;;6.90;;
82526;SDS011;72188;41.974;21.456;2023-10-13T15:12:10;17.33;;;6.85;;
82526;SDS011;72188;41.974;21.456;2023-10-13T15:14:37;13.07;;;6.80;;
82526;SDS011;72188;41.974;21.456;2023-10-13T15:17:04;11.07;;;6.32;;
82526;SDS011;72188;41.974;21.456;2023-10-13T15:19:34;15.50;;;7.68;;
82526;SDS011;72188;41.974;21.456;2023-10-13T15:22:03;17.35;;;7.50;;
82526;SDS011;72188;41.974;21.456;2023-10-13T15:24:32;21.83;;;8.32;;
82526;SDS011;72188;41.974;21.456;2023-10-13T15:27:01;30.50;;;9.57;;